Terminal Aerodrome Forecast
Issued by NWS

Home | Current Version | Previous Version | Graphics & Text | Print | Product List | Glossary On
Versions: 1 2 3 4 5 6 7 8 9 10 11 12 13 14 15
000
FTUS43 KICT 012331
TAFRSL
TAF
KRSL 012331Z 0200/0224 17018G28KT P6SM BKN120
     FM020200 16017G26KT P6SM VCTS SCT090CB BKN120
     FM020700 01019G27KT P6SM BKN120
     FM021300 36012KT P6SM SCT200
     FM022100 05008KT P6SM BKN120=

USA.gov is the U.S. government's official web portal to all federal, state and local government web resources and services.